createdAt,value
2023-12-19T00:00:59.006Z,98467.34
2023-12-19T00:06:00.958Z,98450.53
2023-12-19T00:11:02.856Z,98434.84
2023-12-19T00:16:05.601Z,98455.88
2023-12-19T00:21:07.436Z,98452.88
2023-12-19T00:26:09.264Z,98438.75
2023-12-19T00:31:20.770Z,98458.91
2023-12-19T00:36:23.651Z,98462.44
2023-12-19T00:41:25.578Z,98462.28
2023-12-19T00:46:27.811Z,98430.69
2023-12-19T00:51:29.786Z,98423.97
2023-12-19T00:56:33.653Z,98412.19
2023-12-19T01:01:35.582Z,98407.16
2023-12-19T01:06:37.530Z,98424.81
2023-12-19T01:11:39.305Z,98433.88
2023-12-19T01:16:41.237Z,98447.16
2023-12-19T01:21:43.113Z,98458.25
2023-12-19T01:26:46.139Z,98454.88
2023-12-19T01:31:47.963Z,98448.81
2023-12-19T01:36:57.003Z,98430.31
2023-12-19T01:42:00.560Z,98405.97
2023-12-19T01:47:02.500Z,98426.97
2023-12-19T01:52:04.878Z,98417.53
2023-12-19T01:57:06.965Z,98403.25
2023-12-19T02:02:08.928Z,98393.38
2023-12-19T02:07:10.861Z,98422.56
2023-12-19T02:12:13.855Z,98411.00
2023-12-19T02:17:18.045Z,98403.59
2023-12-19T02:22:20.090Z,98389.84
2023-12-19T02:27:25.276Z,98389.31
2023-12-19T02:32:27.133Z,98372.03
2023-12-19T02:37:28.992Z,98364.13
2023-12-19T02:42:31.113Z,98356.41
2023-12-19T02:47:33.431Z,98348.34
2023-12-19T02:52:35.387Z,98324.19
2023-12-19T02:57:39.780Z,98344.69
2023-12-19T03:02:43.755Z,98339.47
2023-12-19T03:07:45.786Z,98351.72
2023-12-19T03:12:48.017Z,98339.47
2023-12-19T03:17:50.250Z,98331.72
2023-12-19T03:22:52.344Z,98324.50
2023-12-19T03:27:54.189Z,98320.50
2023-12-19T03:32:56.509Z,98316.78
2023-12-19T03:37:58.322Z,98327.03
2023-12-19T03:43:00.114Z,98334.94
2023-12-19T03:48:02.408Z,98347.00
2023-12-19T03:53:04.527Z,98339.94
2023-12-19T03:58:06.336Z,98327.03
2023-12-19T04:03:08.373Z,98303.72
2023-12-19T04:08:11.172Z,98283.88
2023-12-19T04:13:12.972Z,98280.53
2023-12-19T04:18:16.035Z,98286.91
2023-12-19T04:23:18.104Z,98273.81
2023-12-19T04:28:20.308Z,98255.84
2023-12-19T04:33:22.295Z,98254.03
2023-12-19T04:38:25.072Z,98228.50
2023-12-19T04:43:27.226Z,98238.25
2023-12-19T04:48:33.071Z,98245.63
2023-12-19T04:53:34.977Z,98239.59
2023-12-19T04:58:36.744Z,98235.69
2023-12-19T05:03:41.127Z,98232.16
2023-12-19T05:08:42.950Z,98243.59
2023-12-19T05:13:44.802Z,98259.38
2023-12-19T05:18:47.656Z,98286.91
2023-12-19T05:23:49.708Z,98291.28
2023-12-19T05:28:51.730Z,98303.03
2023-12-19T05:33:53.645Z,98281.03
2023-12-19T05:38:55.465Z,98274.13
2023-12-19T05:44:02.409Z,98271.13
2023-12-19T05:49:04.756Z,98273.47
2023-12-19T05:54:06.918Z,98267.59
2023-12-19T05:59:08.694Z,98260.88
2023-12-19T06:04:11.995Z,98247.78
2023-12-19T06:09:14.185Z,98210.16
2023-12-19T06:14:16.118Z,98213.22
2023-12-19T06:19:18.146Z,98215.38
2023-12-19T06:24:19.907Z,98221.41
2023-12-19T06:29:21.703Z,98215.19
2023-12-19T06:34:23.558Z,98204.97
2023-12-19T06:39:25.618Z,98193.56
2023-12-19T06:44:27.421Z,98193.28
2023-12-19T06:49:29.523Z,98181.16
2023-12-19T06:54:33.313Z,98176.66
2023-12-19T06:59:35.308Z,98194.44
2023-12-19T07:04:37.525Z,98173.63
2023-12-19T07:09:39.345Z,98170.09
2023-12-19T07:14:42.502Z,98182.88
2023-12-19T07:19:44.988Z,98175.81
2023-12-19T07:24:47.401Z,98190.25
2023-12-19T07:29:49.780Z,98195.81
2023-12-19T07:34:51.568Z,98190.56
2023-12-19T07:39:53.842Z,98178.81
2023-12-19T07:44:55.667Z,98172.78
2023-12-19T07:49:58.069Z,98177.00
2023-12-19T07:55:00.449Z,98173.78
2023-12-19T08:00:02.261Z,98189.41
2023-12-19T08:05:14.418Z,98194.44
2023-12-19T08:10:16.940Z,98181.31
2023-12-19T08:15:19.025Z,98175.06
2023-12-19T08:20:21.077Z,98176.09
2023-12-19T08:25:22.820Z,98167.28
2023-12-19T08:30:28.412Z,98150.47
2023-12-19T08:35:33.545Z,98150.44
2023-12-19T08:40:35.611Z,98152.44
2023-12-19T08:45:38.401Z,98157.97
2023-12-19T08:50:40.462Z,98160.75
2023-12-19T08:55:44.437Z,98162.34
2023-12-19T09:00:46.253Z,98158.06
2023-12-19T09:05:48.404Z,98157.13
2023-12-19T09:10:50.685Z,98140.59
2023-12-19T09:15:53.155Z,98156.38
2023-12-19T09:20:54.995Z,98131.97
2023-12-19T09:25:56.773Z,98130.41
2023-12-19T09:30:58.840Z,98127.66
2023-12-19T09:36:00.874Z,98127.88
2023-12-19T09:41:03.997Z,98113.31
2023-12-19T09:46:06.743Z,98103.69
2023-12-19T09:51:29.585Z,98088.28
2023-12-19T09:56:31.516Z,98084.97
2023-12-19T10:01:34.508Z,98077.78
2023-12-19T10:06:46.694Z,98071.94
2023-12-19T10:12:08.321Z,98059.00
2023-12-19T10:17:18.926Z,98031.50
2023-12-19T10:22:21.673Z,97999.31
2023-12-19T10:27:23.625Z,97992.09
2023-12-19T10:32:26.631Z,97969.78
2023-12-19T10:37:36.573Z,97956.59
2023-12-19T10:42:42.235Z,97932.31
2023-12-19T10:47:44.190Z,97924.25
2023-12-19T10:52:49.114Z,97905.72
2023-12-19T10:57:51.806Z,97915.72
2023-12-19T11:03:12.309Z,97914.09
2023-12-19T11:08:16.931Z,97905.66
2023-12-19T11:13:20.156Z,97894.84
2023-12-19T11:18:32.718Z,97896.50
2023-12-19T11:24:04.450Z,97886.06
2023-12-19T11:29:06.724Z,97871.41
2023-12-19T11:34:26.146Z,97862.16
2023-12-19T11:39:31.241Z,97854.34
2023-12-19T11:44:37.930Z,97847.97
2023-12-19T11:49:39.934Z,97852.28
2023-12-19T11:54:42.177Z,97835.06
2023-12-19T11:59:52.112Z,97845.88
2023-12-19T12:05:09.894Z,97843.03
2023-12-19T12:10:15.783Z,97831.44
2023-12-19T12:15:23.281Z,97810.81
2023-12-19T12:20:26.533Z,97804.44
2023-12-19T12:25:29.142Z,97798.03
2023-12-19T12:30:33.070Z,97799.91
2023-12-19T12:35:37.054Z,97795.66
2023-12-19T12:40:39.028Z,97780.56
2023-12-19T12:45:40.789Z,97776.63
2023-12-19T12:50:42.649Z,97766.34
2023-12-19T12:55:44.412Z,97749.09
2023-12-19T13:00:47.576Z,97726.81
2023-12-19T13:05:49.503Z,97718.06
2023-12-19T13:10:51.282Z,97724.41
2023-12-19T13:15:54.257Z,97706.75
2023-12-19T13:20:57.734Z,97705.22
2023-12-19T13:25:59.739Z,97714.25
2023-12-19T13:31:04.884Z,97711.34
2023-12-19T13:36:07.305Z,97701.66
2023-12-19T13:41:09.115Z,97707.50
2023-12-19T13:46:11.419Z,97712.22
2023-12-19T13:51:13.677Z,97702.25
2023-12-19T13:56:15.453Z,97682.94
2023-12-19T14:01:17.563Z,97669.19
2023-12-19T14:06:19.853Z,97654.78
2023-12-19T14:11:21.961Z,97657.63
2023-12-19T14:16:23.936Z,97664.44
2023-12-19T14:21:25.738Z,97646.41
2023-12-19T14:26:29.536Z,97649.56
2023-12-19T14:31:32.876Z,97645.19
2023-12-19T14:36:34.737Z,97639.41
2023-12-19T14:41:37.172Z,97630.50
2023-12-19T14:46:39.322Z,97633.00
2023-12-19T14:51:42.141Z,97633.84
2023-12-19T14:56:44.485Z,97633.03
2023-12-19T15:01:46.561Z,97625.56
2023-12-19T15:06:48.537Z,97606.44
2023-12-19T15:11:50.957Z,97601.88
2023-12-19T15:16:53.136Z,97587.34
2023-12-19T15:21:55.028Z,97596.47
2023-12-19T15:26:58.266Z,97600.22
2023-12-19T15:32:02.107Z,97610.41
2023-12-19T15:37:04.482Z,97603.56
2023-12-19T15:42:06.621Z,97614.78
2023-12-19T15:47:08.816Z,97605.22
2023-12-19T15:52:11.144Z,97598.78
2023-12-19T15:57:13.349Z,97585.06
2023-12-19T16:02:15.104Z,97569.47
2023-12-19T16:07:18.336Z,97557.84
2023-12-19T16:12:20.288Z,97552.63
2023-12-19T16:17:22.135Z,97549.91
2023-12-19T16:22:23.971Z,97540.38
2023-12-19T16:27:25.752Z,97529.94
2023-12-19T16:32:27.919Z,97534.94
2023-12-19T16:37:30.080Z,97526.63
2023-12-19T16:42:32.104Z,97522.88
2023-12-19T16:47:33.847Z,97514.78
2023-12-19T16:52:36.499Z,97506.03
2023-12-19T16:57:38.978Z,97506.47
2023-12-19T17:02:41.929Z,97508.75
2023-12-19T17:07:44.232Z,97505.00
2023-12-19T17:12:49.622Z,97499.81
2023-12-19T17:17:52.726Z,97502.28
2023-12-19T17:22:54.917Z,97496.69
2023-12-19T17:27:56.812Z,97497.50
2023-12-19T17:32:58.606Z,97506.69
2023-12-19T17:38:00.490Z,97497.31
2023-12-19T17:43:02.725Z,97486.28
2023-12-19T17:48:05.500Z,97479.00
2023-12-19T17:53:07.147Z,97477.16
2023-12-19T17:58:08.971Z,97467.63
2023-12-19T18:03:11.454Z,97455.03
2023-12-19T18:08:13.424Z,97445.69
2023-12-19T18:13:15.253Z,97453.13
2023-12-19T18:18:19.887Z,97453.66
2023-12-19T18:23:21.845Z,97464.19
2023-12-19T18:28:24.027Z,97470.41
2023-12-19T18:33:26.152Z,97466.22
2023-12-19T18:38:28.294Z,97462.00
2023-12-19T18:43:30.085Z,97462.97
2023-12-19T18:48:32.300Z,97450.63
2023-12-19T18:53:34.427Z,97446.97
2023-12-19T18:58:36.396Z,97436.63
2023-12-19T19:03:39.864Z,97417.97
2023-12-19T19:08:43.114Z,97412.09
2023-12-19T19:13:45.773Z,97410.69
2023-12-19T19:18:50.297Z,97392.72
2023-12-19T19:23:53.292Z,97398.00
2023-12-19T19:28:57.906Z,97386.25
2023-12-19T19:34:00.108Z,97375.81
2023-12-19T19:39:03.568Z,97364.97
2023-12-19T19:44:09.492Z,97353.09
2023-12-19T19:49:11.395Z,97362.06
2023-12-19T19:54:13.274Z,97364.16
2023-12-19T19:59:15.840Z,97357.06
2023-12-19T20:04:17.696Z,97344.94
2023-12-19T20:09:19.745Z,97340.00
2023-12-19T20:14:21.673Z,97325.31
2023-12-19T20:19:23.995Z,97336.94
2023-12-19T20:24:25.794Z,97334.25
2023-12-19T20:29:27.616Z,97322.22
2023-12-19T20:34:30.133Z,97325.50
2023-12-19T20:39:32.814Z,97316.63
2023-12-19T20:44:35.526Z,97328.97
2023-12-19T20:49:37.498Z,97330.22
2023-12-19T20:54:39.737Z,97344.44
2023-12-19T20:59:42.183Z,97333.19
2023-12-19T21:04:44.074Z,97341.47
2023-12-19T21:09:45.952Z,97341.72
2023-12-19T21:14:48.013Z,97349.41
2023-12-19T21:19:49.873Z,97351.03
2023-12-19T21:24:51.703Z,97353.47
2023-12-19T21:29:53.454Z,97348.41
2023-12-19T21:34:55.519Z,97346.72
2023-12-19T21:39:57.888Z,97351.59
2023-12-19T21:45:00.651Z,97336.75
2023-12-19T21:50:02.601Z,97334.69
2023-12-19T21:55:06.234Z,97333.97
2023-12-19T22:00:09.124Z,97328.75
2023-12-19T22:05:11.292Z,97308.13
2023-12-19T22:10:13.386Z,97291.91
2023-12-19T22:15:16.715Z,97285.50
2023-12-19T22:20:18.808Z,97272.00
2023-12-19T22:25:20.648Z,97256.75
2023-12-19T22:30:22.677Z,97238.28
2023-12-19T22:35:24.445Z,97240.22
2023-12-19T22:40:26.541Z,97221.63
2023-12-19T22:45:28.496Z,97216.94
2023-12-19T22:50:30.341Z,97198.66
2023-12-19T22:55:37.884Z,97178.28
2023-12-19T23:00:39.905Z,97162.69
2023-12-19T23:05:41.999Z,97148.31
2023-12-19T23:10:43.717Z,97159.06
2023-12-19T23:15:47.826Z,97154.69
2023-12-19T23:20:49.729Z,97162.94
2023-12-19T23:25:51.662Z,97153.28
2023-12-19T23:30:53.653Z,97168.25
2023-12-19T23:35:55.978Z,97172.38
2023-12-19T23:40:57.896Z,97165.91
2023-12-19T23:46:00.488Z,97150.41
2023-12-19T23:51:02.363Z,97143.72
2023-12-19T23:56:04.665Z,97156.81
